sensor_id;sensor_type;location;lat;lon;timestamp;P1;durP1;ratioP1;P2;durP2;ratioP2
9918;SDS011;4998;51.024;13.828;2023-07-31T00:01:58;2.10;;;1.90;;
9918;SDS011;4998;51.024;13.828;2023-07-31T00:04:27;1.80;;;1.53;;
9918;SDS011;4998;51.024;13.828;2023-07-31T00:06:54;4.30;;;1.80;;
9918;SDS011;4998;51.024;13.828;2023-07-31T00:09:21;1.80;;;1.50;;
9918;SDS011;4998;51.024;13.828;2023-07-31T00:11:48;2.17;;;1.63;;
9918;SDS011;4998;51.024;13.828;2023-07-31T00:14:15;1.70;;;1.60;;
9918;SDS011;4998;51.024;13.828;2023-07-31T00:16:42;2.27;;;1.67;;
9918;SDS011;4998;51.024;13.828;2023-07-31T00:19:09;1.53;;;1.37;;
9918;SDS011;4998;51.024;13.828;2023-07-31T00:21:37;1.60;;;1.50;;
9918;SDS011;4998;51.024;13.828;2023-07-31T00:24:04;2.10;;;1.50;;
9918;SDS011;4998;51.024;13.828;2023-07-31T00:26:31;2.80;;;1.80;;
9918;SDS011;4998;51.024;13.828;2023-07-31T00:28:58;1.60;;;1.50;;
9918;SDS011;4998;51.024;13.828;2023-07-31T00:31:25;2.67;;;1.70;;
9918;SDS011;4998;51.024;13.828;2023-07-31T00:33:53;1.70;;;1.60;;
9918;SDS011;4998;51.024;13.828;2023-07-31T00:36:20;2.10;;;1.87;;
9918;SDS011;4998;51.024;13.828;2023-07-31T00:38:48;3.73;;;1.57;;
9918;SDS011;4998;51.024;13.828;2023-07-31T00:41:15;2.37;;;1.50;;
9918;SDS011;4998;51.024;13.828;2023-07-31T00:43:42;1.60;;;1.50;;
9918;SDS011;4998;51.024;13.828;2023-07-31T00:46:09;1.53;;;1.43;;
9918;SDS011;4998;51.024;13.828;2023-07-31T00:48:36;1.60;;;1.50;;
9918;SDS011;4998;51.024;13.828;2023-07-31T00:51:04;1.83;;;1.50;;
9918;SDS011;4998;51.024;13.828;2023-07-31T00:53:31;2.27;;;1.50;;
9918;SDS011;4998;51.024;13.828;2023-07-31T00:56:00;1.77;;;1.40;;
9918;SDS011;4998;51.024;13.828;2023-07-31T00:58:27;2.37;;;1.77;;
9918;SDS011;4998;51.024;13.828;2023-07-31T01:00:54;6.83;;;1.87;;
9918;SDS011;4998;51.024;13.828;2023-07-31T01:03:21;2.97;;;1.93;;
9918;SDS011;4998;51.024;13.828;2023-07-31T01:05:49;3.63;;;1.77;;
9918;SDS011;4998;51.024;13.828;2023-07-31T01:08:29;2.50;;;1.43;;
9918;SDS011;4998;51.024;13.828;2023-07-31T01:11:07;3.47;;;1.50;;
9918;SDS011;4998;51.024;13.828;2023-07-31T01:13:38;2.80;;;1.50;;
9918;SDS011;4998;51.024;13.828;2023-07-31T01:16:05;1.40;;;1.30;;
9918;SDS011;4998;51.024;13.828;2023-07-31T01:18:32;1.70;;;1.50;;
9918;SDS011;4998;51.024;13.828;2023-07-31T01:21:01;4.53;;;1.70;;
9918;SDS011;4998;51.024;13.828;2023-07-31T01:23:47;3.10;;;1.53;;
9918;SDS011;4998;51.024;13.828;2023-07-31T01:26:23;2.50;;;1.60;;
9918;SDS011;4998;51.024;13.828;2023-07-31T01:28:56;2.13;;;1.30;;
9918;SDS011;4998;51.024;13.828;2023-07-31T01:31:31;1.83;;;1.40;;
9918;SDS011;4998;51.024;13.828;2023-07-31T01:34:00;2.10;;;1.30;;
9918;SDS011;4998;51.024;13.828;2023-07-31T01:36:27;2.20;;;1.37;;
9918;SDS011;4998;51.024;13.828;2023-07-31T01:38:57;3.37;;;1.33;;
9918;SDS011;4998;51.024;13.828;2023-07-31T01:41:26;1.40;;;1.30;;
9918;SDS011;4998;51.024;13.828;2023-07-31T01:43:53;1.70;;;1.23;;
9918;SDS011;4998;51.024;13.828;2023-07-31T01:46:20;3.10;;;1.80;;
9918;SDS011;4998;51.024;13.828;2023-07-31T01:48:47;1.57;;;1.37;;
9918;SDS011;4998;51.024;13.828;2023-07-31T01:51:14;2.37;;;1.60;;
9918;SDS011;4998;51.024;13.828;2023-07-31T01:53:41;2.93;;;1.73;;
9918;SDS011;4998;51.024;13.828;2023-07-31T01:56:08;2.40;;;1.70;;
9918;SDS011;4998;51.024;13.828;2023-07-31T01:58:36;1.60;;;1.50;;
9918;SDS011;4998;51.024;13.828;2023-07-31T02:01:03;2.70;;;1.40;;
9918;SDS011;4998;51.024;13.828;2023-07-31T02:03:30;2.10;;;1.50;;
9918;SDS011;4998;51.024;13.828;2023-07-31T02:05:57;7.70;;;1.80;;
9918;SDS011;4998;51.024;13.828;2023-07-31T02:08:24;2.27;;;1.60;;
9918;SDS011;4998;51.024;13.828;2023-07-31T02:10:51;3.00;;;1.60;;
9918;SDS011;4998;51.024;13.828;2023-07-31T02:13:20;1.93;;;1.60;;
9918;SDS011;4998;51.024;13.828;2023-07-31T02:15:48;2.03;;;1.33;;
9918;SDS011;4998;51.024;13.828;2023-07-31T02:18:15;1.40;;;1.30;;
9918;SDS011;4998;51.024;13.828;2023-07-31T02:20:42;5.10;;;1.37;;
9918;SDS011;4998;51.024;13.828;2023-07-31T02:23:11;2.10;;;1.50;;
9918;SDS011;4998;51.024;13.828;2023-07-31T02:25:38;3.30;;;1.73;;
9918;SDS011;4998;51.024;13.828;2023-07-31T02:28:05;1.97;;;1.67;;
9918;SDS011;4998;51.024;13.828;2023-07-31T02:30:32;1.80;;;1.27;;
9918;SDS011;4998;51.024;13.828;2023-07-31T02:33:00;2.77;;;1.50;;
9918;SDS011;4998;51.024;13.828;2023-07-31T02:35:28;1.70;;;1.23;;
9918;SDS011;4998;51.024;13.828;2023-07-31T02:37:54;2.73;;;1.70;;
9918;SDS011;4998;51.024;13.828;2023-07-31T02:40:22;1.43;;;1.33;;
9918;SDS011;4998;51.024;13.828;2023-07-31T02:42:49;2.10;;;1.60;;
9918;SDS011;4998;51.024;13.828;2023-07-31T02:45:16;2.43;;;1.67;;
9918;SDS011;4998;51.024;13.828;2023-07-31T02:47:43;1.50;;;1.30;;
9918;SDS011;4998;51.024;13.828;2023-07-31T02:50:11;3.27;;;1.50;;
9918;SDS011;4998;51.024;13.828;2023-07-31T02:52:38;2.90;;;1.90;;
9918;SDS011;4998;51.024;13.828;2023-07-31T02:55:06;3.07;;;1.50;;
9918;SDS011;4998;51.024;13.828;2023-07-31T02:57:33;3.67;;;1.70;;
9918;SDS011;4998;51.024;13.828;2023-07-31T03:00:00;1.50;;;1.40;;
9918;SDS011;4998;51.024;13.828;2023-07-31T03:02:30;2.10;;;1.67;;
9918;SDS011;4998;51.024;13.828;2023-07-31T03:04:58;3.00;;;1.70;;
9918;SDS011;4998;51.024;13.828;2023-07-31T03:07:26;2.17;;;1.60;;
9918;SDS011;4998;51.024;13.828;2023-07-31T03:09:53;1.90;;;1.70;;
9918;SDS011;4998;51.024;13.828;2023-07-31T03:12:21;2.13;;;1.50;;
9918;SDS011;4998;51.024;13.828;2023-07-31T03:14:47;2.23;;;1.83;;
9918;SDS011;4998;51.024;13.828;2023-07-31T03:17:14;2.20;;;1.53;;
9918;SDS011;4998;51.024;13.828;2023-07-31T03:19:41;2.03;;;1.70;;
9918;SDS011;4998;51.024;13.828;2023-07-31T03:22:08;1.97;;;1.50;;
9918;SDS011;4998;51.024;13.828;2023-07-31T03:24:37;1.37;;;1.27;;
9918;SDS011;4998;51.024;13.828;2023-07-31T03:27:04;2.10;;;1.50;;
9918;SDS011;4998;51.024;13.828;2023-07-31T03:29:31;8.97;;;2.20;;
9918;SDS011;4998;51.024;13.828;2023-07-31T03:31:58;1.97;;;1.77;;
9918;SDS011;4998;51.024;13.828;2023-07-31T03:34:26;3.10;;;1.80;;
9918;SDS011;4998;51.024;13.828;2023-07-31T03:36:53;2.17;;;1.60;;
9918;SDS011;4998;51.024;13.828;2023-07-31T03:39:20;1.50;;;1.30;;
9918;SDS011;4998;51.024;13.828;2023-07-31T03:41:48;3.30;;;1.40;;
9918;SDS011;4998;51.024;13.828;2023-07-31T03:44:15;1.80;;;1.50;;
9918;SDS011;4998;51.024;13.828;2023-07-31T03:46:42;2.87;;;1.70;;
9918;SDS011;4998;51.024;13.828;2023-07-31T03:49:09;1.43;;;1.30;;
9918;SDS011;4998;51.024;13.828;2023-07-31T03:51:36;2.53;;;1.87;;
9918;SDS011;4998;51.024;13.828;2023-07-31T03:54:03;2.13;;;1.37;;
9918;SDS011;4998;51.024;13.828;2023-07-31T03:56:30;2.00;;;1.70;;
9918;SDS011;4998;51.024;13.828;2023-07-31T03:58:59;2.23;;;1.43;;
9918;SDS011;4998;51.024;13.828;2023-07-31T04:01:26;2.63;;;1.70;;
9918;SDS011;4998;51.024;13.828;2023-07-31T04:03:53;2.67;;;1.83;;
9918;SDS011;4998;51.024;13.828;2023-07-31T04:06:20;1.87;;;1.70;;
9918;SDS011;4998;51.024;13.828;2023-07-31T04:08:47;1.50;;;1.40;;
9918;SDS011;4998;51.024;13.828;2023-07-31T04:11:14;2.00;;;1.40;;
9918;SDS011;4998;51.024;13.828;2023-07-31T04:13:41;2.33;;;1.57;;
9918;SDS011;4998;51.024;13.828;2023-07-31T04:16:09;2.13;;;1.67;;
9918;SDS011;4998;51.024;13.828;2023-07-31T04:18:37;3.03;;;1.80;;
9918;SDS011;4998;51.024;13.828;2023-07-31T04:21:04;2.40;;;2.00;;
9918;SDS011;4998;51.024;13.828;2023-07-31T04:23:31;3.37;;;1.43;;
9918;SDS011;4998;51.024;13.828;2023-07-31T04:25:58;2.70;;;1.60;;
9918;SDS011;4998;51.024;13.828;2023-07-31T04:28:25;2.90;;;1.80;;
9918;SDS011;4998;51.024;13.828;2023-07-31T04:30:52;1.97;;;1.77;;
9918;SDS011;4998;51.024;13.828;2023-07-31T04:33:20;1.80;;;1.70;;
9918;SDS011;4998;51.024;13.828;2023-07-31T04:35:50;1.50;;;1.40;;
9918;SDS011;4998;51.024;13.828;2023-07-31T04:38:18;2.27;;;1.77;;
9918;SDS011;4998;51.024;13.828;2023-07-31T04:40:46;3.00;;;1.57;;
9918;SDS011;4998;51.024;13.828;2023-07-31T04:43:13;1.80;;;1.60;;
9918;SDS011;4998;51.024;13.828;2023-07-31T04:45:42;2.10;;;1.83;;
9918;SDS011;4998;51.024;13.828;2023-07-31T04:48:11;3.20;;;1.30;;
9918;SDS011;4998;51.024;13.828;2023-07-31T04:50:39;1.33;;;1.23;;
9918;SDS011;4998;51.024;13.828;2023-07-31T04:53:06;2.47;;;1.50;;
9918;SDS011;4998;51.024;13.828;2023-07-31T04:55:33;1.67;;;1.57;;
9918;SDS011;4998;51.024;13.828;2023-07-31T04:58:00;1.70;;;1.60;;
9918;SDS011;4998;51.024;13.828;2023-07-31T05:00:27;2.80;;;1.63;;
9918;SDS011;4998;51.024;13.828;2023-07-31T05:02:54;2.00;;;1.50;;
9918;SDS011;4998;51.024;13.828;2023-07-31T05:05:21;2.57;;;1.50;;
9918;SDS011;4998;51.024;13.828;2023-07-31T05:07:50;1.40;;;1.30;;
9918;SDS011;4998;51.024;13.828;2023-07-31T05:10:17;1.93;;;1.50;;
9918;SDS011;4998;51.024;13.828;2023-07-31T05:12:44;3.13;;;1.80;;
9918;SDS011;4998;51.024;13.828;2023-07-31T05:15:11;2.67;;;1.67;;
9918;SDS011;4998;51.024;13.828;2023-07-31T05:17:38;2.77;;;2.20;;
9918;SDS011;4998;51.024;13.828;2023-07-31T05:20:06;2.13;;;1.70;;
9918;SDS011;4998;51.024;13.828;2023-07-31T05:22:34;2.30;;;1.70;;
9918;SDS011;4998;51.024;13.828;2023-07-31T05:25:02;4.33;;;2.00;;
9918;SDS011;4998;51.024;13.828;2023-07-31T05:27:30;3.00;;;1.40;;
9918;SDS011;4998;51.024;13.828;2023-07-31T05:29:57;1.90;;;1.70;;
9918;SDS011;4998;51.024;13.828;2023-07-31T05:32:24;2.87;;;1.80;;
9918;SDS011;4998;51.024;13.828;2023-07-31T05:34:51;2.77;;;1.70;;
9918;SDS011;4998;51.024;13.828;2023-07-31T05:37:18;3.00;;;1.60;;
9918;SDS011;4998;51.024;13.828;2023-07-31T05:39:45;2.07;;;1.60;;
9918;SDS011;4998;51.024;13.828;2023-07-31T05:42:14;1.63;;;1.53;;
9918;SDS011;4998;51.024;13.828;2023-07-31T05:44:41;2.43;;;1.70;;
9918;SDS011;4998;51.024;13.828;2023-07-31T05:47:08;2.13;;;1.60;;
9918;SDS011;4998;51.024;13.828;2023-07-31T05:49:36;2.40;;;1.87;;
9918;SDS011;4998;51.024;13.828;2023-07-31T05:52:03;2.13;;;1.50;;
9918;SDS011;4998;51.024;13.828;2023-07-31T05:54:31;2.73;;;1.70;;
9918;SDS011;4998;51.024;13.828;2023-07-31T05:56:58;1.50;;;1.40;;
9918;SDS011;4998;51.024;13.828;2023-07-31T05:59:26;1.73;;;1.53;;
9918;SDS011;4998;51.024;13.828;2023-07-31T06:01:53;2.50;;;1.60;;
9918;SDS011;4998;51.024;13.828;2023-07-31T06:04:20;2.17;;;1.80;;
9918;SDS011;4998;51.024;13.828;2023-07-31T06:06:50;1.90;;;1.60;;
9918;SDS011;4998;51.024;13.828;2023-07-31T06:09:17;2.90;;;1.53;;
9918;SDS011;4998;51.024;13.828;2023-07-31T06:11:45;3.10;;;1.43;;
9918;SDS011;4998;51.024;13.828;2023-07-31T06:14:12;3.00;;;1.90;;
9918;SDS011;4998;51.024;13.828;2023-07-31T06:16:41;1.80;;;1.70;;
9918;SDS011;4998;51.024;13.828;2023-07-31T06:19:09;2.20;;;1.63;;
9918;SDS011;4998;51.024;13.828;2023-07-31T06:21:36;2.97;;;2.20;;
9918;SDS011;4998;51.024;13.828;2023-07-31T06:24:03;1.70;;;1.57;;
9918;SDS011;4998;51.024;13.828;2023-07-31T06:26:31;2.17;;;1.90;;
9918;SDS011;4998;51.024;13.828;2023-07-31T06:28:58;1.70;;;1.60;;
9918;SDS011;4998;51.024;13.828;2023-07-31T06:31:25;5.57;;;3.90;;
9918;SDS011;4998;51.024;13.828;2023-07-31T06:33:53;3.30;;;2.83;;
9918;SDS011;4998;51.024;13.828;2023-07-31T06:36:20;2.40;;;2.20;;
9918;SDS011;4998;51.024;13.828;2023-07-31T06:38:48;2.20;;;1.80;;
9918;SDS011;4998;51.024;13.828;2023-07-31T06:41:15;2.83;;;2.00;;
9918;SDS011;4998;51.024;13.828;2023-07-31T06:43:42;2.00;;;1.60;;
9918;SDS011;4998;51.024;13.828;2023-07-31T06:46:09;2.10;;;1.90;;
9918;SDS011;4998;51.024;13.828;2023-07-31T06:48:36;2.23;;;1.77;;
9918;SDS011;4998;51.024;13.828;2023-07-31T06:51:04;1.93;;;1.67;;
9918;SDS011;4998;51.024;13.828;2023-07-31T06:53:31;1.47;;;1.37;;
9918;SDS011;4998;51.024;13.828;2023-07-31T06:55:58;2.40;;;1.73;;
9918;SDS011;4998;51.024;13.828;2023-07-31T06:58:25;1.70;;;1.60;;
9918;SDS011;4998;51.024;13.828;2023-07-31T07:00:52;3.70;;;1.80;;
9918;SDS011;4998;51.024;13.828;2023-07-31T07:03:19;2.43;;;1.50;;
9918;SDS011;4998;51.024;13.828;2023-07-31T07:05:46;5.87;;;1.80;;
9918;SDS011;4998;51.024;13.828;2023-07-31T07:08:14;2.50;;;1.80;;
9918;SDS011;4998;51.024;13.828;2023-07-31T07:10:42;3.33;;;1.70;;
9918;SDS011;4998;51.024;13.828;2023-07-31T07:13:09;4.07;;;1.90;;
9918;SDS011;4998;51.024;13.828;2023-07-31T07:15:37;2.77;;;1.93;;
9918;SDS011;4998;51.024;13.828;2023-07-31T07:18:04;3.07;;;1.80;;
9918;SDS011;4998;51.024;13.828;2023-07-31T07:20:31;2.80;;;1.70;;
9918;SDS011;4998;51.024;13.828;2023-07-31T07:22:58;2.07;;;1.90;;
9918;SDS011;4998;51.024;13.828;2023-07-31T07:25:27;2.00;;;1.80;;
9918;SDS011;4998;51.024;13.828;2023-07-31T07:27:54;2.90;;;1.87;;
9918;SDS011;4998;51.024;13.828;2023-07-31T07:30:20;2.20;;;1.80;;
9918;SDS011;4998;51.024;13.828;2023-07-31T07:32:50;3.60;;;2.10;;
9918;SDS011;4998;51.024;13.828;2023-07-31T07:35:17;2.23;;;1.70;;
9918;SDS011;4998;51.024;13.828;2023-07-31T07:37:44;2.80;;;2.10;;
9918;SDS011;4998;51.024;13.828;2023-07-31T07:40:11;2.87;;;2.13;;
9918;SDS011;4998;51.024;13.828;2023-07-31T07:42:39;2.37;;;1.87;;
9918;SDS011;4998;51.024;13.828;2023-07-31T07:45:07;2.40;;;1.93;;
9918;SDS011;4998;51.024;13.828;2023-07-31T07:47:34;1.90;;;1.70;;
9918;SDS011;4998;51.024;13.828;2023-07-31T07:50:01;2.00;;;1.80;;
9918;SDS011;4998;51.024;13.828;2023-07-31T07:52:29;1.80;;;1.70;;
9918;SDS011;4998;51.024;13.828;2023-07-31T07:54:56;2.43;;;2.07;;
9918;SDS011;4998;51.024;13.828;2023-07-31T07:57:23;2.00;;;1.73;;
9918;SDS011;4998;51.024;13.828;2023-07-31T07:59:51;3.77;;;1.80;;
9918;SDS011;4998;51.024;13.828;2023-07-31T08:02:18;2.10;;;1.90;;
9918;SDS011;4998;51.024;13.828;2023-07-31T08:04:45;2.00;;;1.80;;
9918;SDS011;4998;51.024;13.828;2023-07-31T08:07:12;2.13;;;2.00;;
9918;SDS011;4998;51.024;13.828;2023-07-31T08:09:39;2.00;;;1.80;;
9918;SDS011;4998;51.024;13.828;2023-07-31T08:12:07;6.30;;;2.10;;
9918;SDS011;4998;51.024;13.828;2023-07-31T08:14:34;5.50;;;3.70;;
9918;SDS011;4998;51.024;13.828;2023-07-31T08:17:03;4.27;;;3.00;;
9918;SDS011;4998;51.024;13.828;2023-07-31T08:19:30;2.37;;;2.13;;
9918;SDS011;4998;51.024;13.828;2023-07-31T08:21:57;2.40;;;2.20;;
9918;SDS011;4998;51.024;13.828;2023-07-31T08:24:24;2.50;;;2.10;;
9918;SDS011;4998;51.024;13.828;2023-07-31T08:26:51;3.07;;;2.47;;
9918;SDS011;4998;51.024;13.828;2023-07-31T08:29:18;3.37;;;2.30;;
9918;SDS011;4998;51.024;13.828;2023-07-31T08:31:45;2.43;;;1.90;;
9918;SDS011;4998;51.024;13.828;2023-07-31T08:34:13;3.00;;;2.03;;
9918;SDS011;4998;51.024;13.828;2023-07-31T08:36:40;3.30;;;2.10;;
9918;SDS011;4998;51.024;13.828;2023-07-31T08:39:07;2.43;;;1.80;;
9918;SDS011;4998;51.024;13.828;2023-07-31T08:41:37;4.03;;;2.10;;
9918;SDS011;4998;51.024;13.828;2023-07-31T08:44:05;5.10;;;2.30;;
9918;SDS011;4998;51.024;13.828;2023-07-31T08:46:33;3.23;;;1.80;;
9918;SDS011;4998;51.024;13.828;2023-07-31T08:49:01;4.07;;;2.10;;
9918;SDS011;4998;51.024;13.828;2023-07-31T08:51:32;2.40;;;2.00;;
9918;SDS011;4998;51.024;13.828;2023-07-31T08:54:00;3.50;;;1.93;;
9918;SDS011;4998;51.024;13.828;2023-07-31T08:56:29;2.17;;;1.90;;
9918;SDS011;4998;51.024;13.828;2023-07-31T08:58:57;1.93;;;1.80;;
9918;SDS011;4998;51.024;13.828;2023-07-31T09:01:26;2.20;;;2.00;;
9918;SDS011;4998;51.024;13.828;2023-07-31T09:03:56;2.30;;;1.93;;
9918;SDS011;4998;51.024;13.828;2023-07-31T09:06:26;2.13;;;1.93;;
9918;SDS011;4998;51.024;13.828;2023-07-31T09:08:57;3.10;;;2.20;;
9918;SDS011;4998;51.024;13.828;2023-07-31T09:11:25;4.10;;;2.10;;
9918;SDS011;4998;51.024;13.828;2023-07-31T09:13:53;2.23;;;2.03;;
9918;SDS011;4998;51.024;13.828;2023-07-31T09:16:27;3.53;;;2.43;;
9918;SDS011;4998;51.024;13.828;2023-07-31T09:18:57;2.77;;;2.40;;
9918;SDS011;4998;51.024;13.828;2023-07-31T09:21:26;2.40;;;2.20;;
9918;SDS011;4998;51.024;13.828;2023-07-31T09:23:54;4.83;;;2.57;;
9918;SDS011;4998;51.024;13.828;2023-07-31T09:26:32;2.23;;;2.00;;
9918;SDS011;4998;51.024;13.828;2023-07-31T09:29:00;2.80;;;2.47;;
9918;SDS011;4998;51.024;13.828;2023-07-31T09:31:33;2.80;;;2.43;;
9918;SDS011;4998;51.024;13.828;2023-07-31T09:34:07;3.13;;;2.20;;
9918;SDS011;4998;51.024;13.828;2023-07-31T09:36:39;1.77;;;1.63;;
9918;SDS011;4998;51.024;13.828;2023-07-31T09:39:08;2.97;;;1.90;;
9918;SDS011;4998;51.024;13.828;2023-07-31T09:41:37;5.60;;;2.10;;
9918;SDS011;4998;51.024;13.828;2023-07-31T09:44:05;3.73;;;2.20;;
9918;SDS011;4998;51.024;13.828;2023-07-31T09:46:32;2.10;;;1.90;;
9918;SDS011;4998;51.024;13.828;2023-07-31T09:49:08;3.50;;;2.10;;
9918;SDS011;4998;51.024;13.828;2023-07-31T09:51:36;2.60;;;2.20;;
9918;SDS011;4998;51.024;13.828;2023-07-31T09:54:09;2.20;;;1.80;;
9918;SDS011;4998;51.024;13.828;2023-07-31T09:56:40;4.70;;;2.00;;
9918;SDS011;4998;51.024;13.828;2023-07-31T09:59:13;1.90;;;1.80;;
9918;SDS011;4998;51.024;13.828;2023-07-31T10:01:41;2.30;;;2.03;;
9918;SDS011;4998;51.024;13.828;2023-07-31T10:04:09;2.00;;;1.90;;
9918;SDS011;4998;51.024;13.828;2023-07-31T10:06:37;3.63;;;2.20;;
9918;SDS011;4998;51.024;13.828;2023-07-31T10:09:05;2.20;;;2.00;;
9918;SDS011;4998;51.024;13.828;2023-07-31T10:11:34;2.53;;;2.23;;
9918;SDS011;4998;51.024;13.828;2023-07-31T10:14:06;1.80;;;1.70;;
9918;SDS011;4998;51.024;13.828;2023-07-31T10:16:35;2.17;;;1.97;;
9918;SDS011;4998;51.024;13.828;2023-07-31T10:19:04;2.83;;;2.20;;
9918;SDS011;4998;51.024;13.828;2023-07-31T10:21:33;2.00;;;1.90;;
9918;SDS011;4998;51.024;13.828;2023-07-31T10:24:02;4.40;;;2.93;;
9918;SDS011;4998;51.024;13.828;2023-07-31T10:26:30;2.43;;;2.23;;
9918;SDS011;4998;51.024;13.828;2023-07-31T10:28:58;3.40;;;2.70;;
9918;SDS011;4998;51.024;13.828;2023-07-31T10:31:28;3.30;;;2.40;;
9918;SDS011;4998;51.024;13.828;2023-07-31T10:33:55;2.13;;;2.00;;
9918;SDS011;4998;51.024;13.828;2023-07-31T10:36:26;3.00;;;1.90;;
9918;SDS011;4998;51.024;13.828;2023-07-31T10:38:54;2.63;;;2.43;;
9918;SDS011;4998;51.024;13.828;2023-07-31T10:41:27;2.90;;;2.10;;
9918;SDS011;4998;51.024;13.828;2023-07-31T10:43:57;2.23;;;2.00;;
9918;SDS011;4998;51.024;13.828;2023-07-31T10:46:24;4.10;;;3.00;;
9918;SDS011;4998;51.024;13.828;2023-07-31T10:48:58;3.23;;;2.90;;
9918;SDS011;4998;51.024;13.828;2023-07-31T10:51:32;3.73;;;3.03;;
9918;SDS011;4998;51.024;13.828;2023-07-31T10:54:10;6.00;;;3.23;;
9918;SDS011;4998;51.024;13.828;2023-07-31T10:56:38;2.80;;;2.30;;
9918;SDS011;4998;51.024;13.828;2023-07-31T10:59:05;2.10;;;1.90;;
9918;SDS011;4998;51.024;13.828;2023-07-31T11:04:23;4.23;;;2.30;;
9918;SDS011;4998;51.024;13.828;2023-07-31T11:06:57;2.27;;;2.07;;
9918;SDS011;4998;51.024;13.828;2023-07-31T11:09:27;1.80;;;1.70;;
9918;SDS011;4998;51.024;13.828;2023-07-31T11:11:56;2.40;;;2.20;;
9918;SDS011;4998;51.024;13.828;2023-07-31T11:14:24;2.60;;;2.40;;
9918;SDS011;4998;51.024;13.828;2023-07-31T11:16:51;2.40;;;2.20;;
9918;SDS011;4998;51.024;13.828;2023-07-31T11:19:23;2.17;;;2.00;;
9918;SDS011;4998;51.024;13.828;2023-07-31T11:21:50;1.80;;;1.70;;
9918;SDS011;4998;51.024;13.828;2023-07-31T11:24:19;2.10;;;2.00;;
9918;SDS011;4998;51.024;13.828;2023-07-31T11:26:49;1.93;;;1.80;;
9918;SDS011;4998;51.024;13.828;2023-07-31T11:29:17;1.77;;;1.67;;
9918;SDS011;4998;51.024;13.828;2023-07-31T11:31:45;3.03;;;2.00;;
9918;SDS011;4998;51.024;13.828;2023-07-31T11:34:14;3.50;;;1.87;;
9918;SDS011;4998;51.024;13.828;2023-07-31T11:36:53;2.03;;;1.90;;
9918;SDS011;4998;51.024;13.828;2023-07-31T11:39:21;1.80;;;1.70;;
9918;SDS011;4998;51.024;13.828;2023-07-31T11:41:48;1.83;;;1.73;;
9918;SDS011;4998;51.024;13.828;2023-07-31T11:44:15;2.90;;;1.60;;
9918;SDS011;4998;51.024;13.828;2023-07-31T11:46:42;12.17;;;10.90;;
9918;SDS011;4998;51.024;13.828;2023-07-31T11:49:09;11.10;;;10.00;;
9918;SDS011;4998;51.024;13.828;2023-07-31T11:51:36;4.67;;;4.27;;
9918;SDS011;4998;51.024;13.828;2023-07-31T11:54:04;3.00;;;2.63;;
9918;SDS011;4998;51.024;13.828;2023-07-31T11:56:32;2.33;;;2.10;;
9918;SDS011;4998;51.024;13.828;2023-07-31T11:58:59;2.60;;;2.10;;
9918;SDS011;4998;51.024;13.828;2023-07-31T12:01:30;2.10;;;2.00;;
9918;SDS011;4998;51.024;13.828;2023-07-31T12:03:58;3.53;;;2.50;;
9918;SDS011;4998;51.024;13.828;2023-07-31T12:06:32;2.27;;;2.07;;
9918;SDS011;4998;51.024;13.828;2023-07-31T12:09:00;2.20;;;2.00;;
9918;SDS011;4998;51.024;13.828;2023-07-31T12:11:30;3.30;;;1.73;;
9918;SDS011;4998;51.024;13.828;2023-07-31T12:13:57;2.83;;;1.90;;
9918;SDS011;4998;51.024;13.828;2023-07-31T12:16:26;1.80;;;1.70;;
9918;SDS011;4998;51.024;13.828;2023-07-31T12:18:53;1.70;;;1.60;;
9918;SDS011;4998;51.024;13.828;2023-07-31T12:21:20;1.63;;;1.53;;
9918;SDS011;4998;51.024;13.828;2023-07-31T12:23:47;1.67;;;1.57;;
9918;SDS011;4998;51.024;13.828;2023-07-31T12:26:15;1.70;;;1.60;;
9918;SDS011;4998;51.024;13.828;2023-07-31T12:28:44;1.73;;;1.63;;
9918;SDS011;4998;51.024;13.828;2023-07-31T12:31:13;1.53;;;1.43;;
9918;SDS011;4998;51.024;13.828;2023-07-31T12:33:42;2.27;;;2.00;;
9918;SDS011;4998;51.024;13.828;2023-07-31T12:36:10;2.20;;;1.93;;
9918;SDS011;4998;51.024;13.828;2023-07-31T12:38:38;1.80;;;1.70;;
9918;SDS011;4998;51.024;13.828;2023-07-31T12:41:05;3.53;;;1.97;;
9918;SDS011;4998;51.024;13.828;2023-07-31T12:43:32;1.73;;;1.63;;
9918;SDS011;4998;51.024;13.828;2023-07-31T12:46:00;2.03;;;1.83;;
9918;SDS011;4998;51.024;13.828;2023-07-31T12:48:28;1.63;;;1.53;;
9918;SDS011;4998;51.024;13.828;2023-07-31T12:50:55;1.87;;;1.63;;
9918;SDS011;4998;51.024;13.828;2023-07-31T12:53:22;2.37;;;2.07;;
9918;SDS011;4998;51.024;13.828;2023-07-31T12:55:49;1.70;;;1.60;;
9918;SDS011;4998;51.024;13.828;2023-07-31T12:58:16;3.37;;;2.30;;
9918;SDS011;4998;51.024;13.828;2023-07-31T13:00:43;2.07;;;1.70;;
9918;SDS011;4998;51.024;13.828;2023-07-31T13:03:12;1.97;;;1.80;;
9918;SDS011;4998;51.024;13.828;2023-07-31T13:05:39;1.87;;;1.77;;
9918;SDS011;4998;51.024;13.828;2023-07-31T13:08:06;1.63;;;1.53;;
9918;SDS011;4998;51.024;13.828;2023-07-31T13:10:33;2.47;;;1.80;;
9918;SDS011;4998;51.024;13.828;2023-07-31T13:13:00;2.13;;;1.93;;
9918;SDS011;4998;51.024;13.828;2023-07-31T13:15:27;2.30;;;2.10;;
9918;SDS011;4998;51.024;13.828;2023-07-31T13:17:54;2.20;;;2.00;;
9918;SDS011;4998;51.024;13.828;2023-07-31T13:20:23;2.73;;;1.93;;
9918;SDS011;4998;51.024;13.828;2023-07-31T13:22:50;3.10;;;2.20;;
9918;SDS011;4998;51.024;13.828;2023-07-31T13:25:17;3.40;;;1.83;;
9918;SDS011;4998;51.024;13.828;2023-07-31T13:27:44;1.80;;;1.70;;
9918;SDS011;4998;51.024;13.828;2023-07-31T13:30:11;1.60;;;1.50;;
9918;SDS011;4998;51.024;13.828;2023-07-31T13:32:38;2.00;;;1.80;;
9918;SDS011;4998;51.024;13.828;2023-07-31T13:35:05;2.50;;;2.30;;
9918;SDS011;4998;51.024;13.828;2023-07-31T13:37:34;3.50;;;3.20;;
9918;SDS011;4998;51.024;13.828;2023-07-31T13:40:01;3.37;;;3.07;;
9918;SDS011;4998;51.024;13.828;2023-07-31T13:42:29;2.20;;;2.10;;
9918;SDS011;4998;51.024;13.828;2023-07-31T13:44:57;3.07;;;2.00;;
9918;SDS011;4998;51.024;13.828;2023-07-31T13:47:24;2.47;;;1.77;;
9918;SDS011;4998;51.024;13.828;2023-07-31T13:49:51;2.17;;;2.07;;
9918;SDS011;4998;51.024;13.828;2023-07-31T13:52:18;2.50;;;2.00;;
9918;SDS011;4998;51.024;13.828;2023-07-31T13:54:46;1.93;;;1.80;;
9918;SDS011;4998;51.024;13.828;2023-07-31T13:57:13;2.73;;;1.57;;
9918;SDS011;4998;51.024;13.828;2023-07-31T13:59:41;2.23;;;2.03;;
9918;SDS011;4998;51.024;13.828;2023-07-31T14:02:08;2.20;;;2.00;;
9918;SDS011;4998;51.024;13.828;2023-07-31T14:04:35;2.30;;;2.10;;
9918;SDS011;4998;51.024;13.828;2023-07-31T14:07:02;2.33;;;2.03;;
9918;SDS011;4998;51.024;13.828;2023-07-31T14:09:29;2.43;;;2.23;;
9918;SDS011;4998;51.024;13.828;2023-07-31T14:11:58;5.57;;;2.10;;
9918;SDS011;4998;51.024;13.828;2023-07-31T14:14:25;2.13;;;1.97;;
9918;SDS011;4998;51.024;13.828;2023-07-31T14:16:51;2.07;;;1.80;;
9918;SDS011;4998;51.024;13.828;2023-07-31T14:19:19;3.00;;;2.07;;
9918;SDS011;4998;51.024;13.828;2023-07-31T14:21:46;1.80;;;1.67;;
9918;SDS011;4998;51.024;13.828;2023-07-31T14:24:13;2.10;;;1.90;;
9918;SDS011;4998;51.024;13.828;2023-07-31T14:26:40;2.17;;;1.97;;
9918;SDS011;4998;51.024;13.828;2023-07-31T14:29:08;2.07;;;1.87;;
9918;SDS011;4998;51.024;13.828;2023-07-31T14:31:35;2.50;;;1.90;;
9918;SDS011;4998;51.024;13.828;2023-07-31T14:34:03;1.90;;;1.80;;
9918;SDS011;4998;51.024;13.828;2023-07-31T14:36:30;2.20;;;2.00;;
9918;SDS011;4998;51.024;13.828;2023-07-31T14:38:57;1.93;;;1.80;;
9918;SDS011;4998;51.024;13.828;2023-07-31T14:41:24;2.03;;;1.90;;
9918;SDS011;4998;51.024;13.828;2023-07-31T14:43:51;3.40;;;2.30;;
9918;SDS011;4998;51.024;13.828;2023-07-31T14:46:19;2.30;;;2.10;;
9918;SDS011;4998;51.024;13.828;2023-07-31T14:48:46;1.87;;;1.77;;
9918;SDS011;4998;51.024;13.828;2023-07-31T14:51:13;2.43;;;2.23;;
9918;SDS011;4998;51.024;13.828;2023-07-31T14:53:41;3.07;;;2.33;;
9918;SDS011;4998;51.024;13.828;2023-07-31T14:56:08;2.30;;;2.10;;
9918;SDS011;4998;51.024;13.828;2023-07-31T14:58:36;3.37;;;1.87;;
9918;SDS011;4998;51.024;13.828;2023-07-31T15:01:03;1.83;;;1.73;;
9918;SDS011;4998;51.024;13.828;2023-07-31T15:03:31;2.03;;;1.83;;
9918;SDS011;4998;51.024;13.828;2023-07-31T15:05:58;3.17;;;2.20;;
9918;SDS011;4998;51.024;13.828;2023-07-31T15:08:25;2.13;;;1.93;;